createdAt,value
2019-01-11T00:01:15.960Z,7.80
2019-01-11T00:03:46.425Z,8.53
2019-01-11T00:06:16.892Z,8.78
2019-01-11T00:08:47.350Z,8.50
2019-01-11T00:11:17.908Z,8.70
2019-01-11T00:13:49.436Z,8.70
2019-01-11T00:16:19.901Z,9.10
2019-01-11T00:18:50.384Z,7.90
2019-01-11T00:21:21.157Z,9.13
2019-01-11T00:23:51.600Z,8.07
2019-01-11T00:26:22.064Z,7.80
2019-01-11T00:28:52.593Z,8.70
2019-01-11T00:31:23.154Z,8.87
2019-01-11T00:33:53.580Z,8.30
2019-01-11T00:36:24.087Z,7.57
2019-01-11T00:38:54.569Z,9.07
2019-01-11T00:41:25.369Z,8.33
2019-01-11T00:43:55.867Z,8.13
2019-01-11T00:46:26.621Z,8.20
2019-01-11T00:48:57.073Z,8.83
2019-01-11T00:51:27.540Z,8.70
2019-01-11T00:53:58.181Z,8.27
2019-01-11T00:56:29.009Z,8.83
2019-01-11T00:58:59.560Z,9.90
2019-01-11T01:01:30.017Z,8.60
2019-01-11T01:04:00.472Z,8.60
2019-01-11T01:06:31.004Z,8.73
2019-01-11T01:09:01.468Z,8.60
2019-01-11T01:11:33.790Z,8.93
2019-01-11T01:14:04.351Z,8.73
2019-01-11T01:16:34.905Z,9.07
2019-01-11T01:19:05.460Z,9.40
2019-01-11T01:21:35.934Z,9.77
2019-01-11T01:24:06.386Z,9.10
2019-01-11T01:26:36.856Z,9.33
2019-01-11T01:29:08.605Z,8.83
2019-01-11T01:31:39.205Z,8.70
2019-01-11T01:34:09.641Z,9.43
2019-01-11T01:36:40.141Z,8.53
2019-01-11T01:39:10.594Z,9.23
2019-01-11T01:41:41.087Z,8.60
2019-01-11T01:44:12.271Z,8.53
2019-01-11T01:46:43.001Z,9.20
2019-01-11T01:49:13.602Z,9.97
2019-01-11T01:51:44.072Z,9.00
2019-01-11T01:54:14.520Z,9.57
2019-01-11T01:56:45.045Z,9.20
2019-01-11T01:59:16.576Z,9.93
2019-01-11T02:01:47.308Z,8.93
2019-01-11T02:04:19.157Z,9.40
2019-01-11T02:06:52.738Z,9.33
2019-01-11T02:09:23.201Z,9.10
2019-01-11T02:11:53.746Z,9.20
2019-01-11T02:14:24.294Z,8.70
2019-01-11T02:16:54.736Z,8.73
2019-01-11T02:19:25.269Z,10.17
2019-01-11T02:21:55.712Z,9.23
2019-01-11T02:24:26.172Z,9.00
2019-01-11T02:26:56.628Z,9.50
2019-01-11T02:29:27.084Z,9.20
2019-01-11T02:31:57.545Z,9.87
2019-01-11T02:34:28.245Z,9.63
2019-01-11T02:36:58.921Z,9.47
2019-01-11T02:39:29.373Z,8.73
2019-01-11T02:42:00.069Z,9.50
2019-01-11T02:44:30.511Z,7.97
2019-01-11T02:47:00.951Z,9.17
2019-01-11T02:49:31.418Z,9.13
2019-01-11T02:52:01.922Z,9.63
2019-01-11T02:54:32.736Z,9.28
2019-01-11T02:57:03.208Z,8.90
2019-01-11T02:59:33.761Z,9.57
2019-01-11T03:02:04.545Z,9.27
2019-01-11T03:04:36.446Z,9.27
2019-01-11T03:07:06.896Z,10.23
2019-01-11T03:09:37.716Z,9.40
2019-01-11T03:12:09.357Z,9.37
2019-01-11T03:14:39.793Z,9.77
2019-01-11T03:17:10.339Z,9.07
2019-01-11T03:19:47.686Z,9.97
2019-01-11T03:22:14.611Z,9.50
2019-01-11T03:24:45.539Z,10.30
2019-01-11T03:27:16.141Z,10.23
2019-01-11T03:29:46.937Z,10.30
2019-01-11T03:32:17.908Z,9.67
2019-01-11T03:35:16.497Z,9.97
2019-01-11T03:37:48.796Z,10.30
2019-01-11T03:40:24.505Z,9.67
2019-01-11T03:42:55.015Z,10.10
2019-01-11T03:45:25.640Z,10.50
2019-01-11T03:47:57.085Z,10.37
2019-01-11T03:50:27.629Z,10.33
2019-01-11T03:52:58.090Z,10.83
2019-01-11T03:55:28.847Z,10.60
2019-01-11T03:57:59.332Z,10.67
2019-01-11T04:00:30.093Z,11.47
2019-01-11T04:03:00.837Z,10.70
2019-01-11T04:05:31.304Z,10.40
2019-01-11T04:08:01.780Z,9.87
2019-01-11T04:10:32.247Z,11.63
2019-01-11T04:13:02.736Z,11.63
2019-01-11T04:15:33.274Z,10.87
2019-01-11T04:18:37.925Z,10.23
2019-01-11T04:21:08.461Z,11.40
2019-01-11T04:23:38.946Z,10.33
2019-01-11T04:26:09.446Z,9.97
2019-01-11T04:28:40.234Z,10.43
2019-01-11T04:31:10.715Z,10.70
2019-01-11T04:33:41.215Z,10.10
2019-01-11T04:36:11.709Z,11.00
2019-01-11T04:38:42.201Z,11.30
2019-01-11T04:41:12.711Z,10.33
2019-01-11T04:43:44.086Z,11.70
2019-01-11T04:46:14.715Z,11.23
2019-01-11T04:48:46.159Z,10.40
2019-01-11T04:51:16.627Z,10.37
2019-01-11T04:53:48.840Z,11.20
2019-01-11T04:56:19.288Z,11.40
2019-01-11T04:58:49.745Z,11.23
2019-01-11T05:01:20.211Z,11.40
2019-01-11T05:03:50.763Z,10.50
2019-01-11T05:06:21.232Z,10.67
2019-01-11T05:08:52.887Z,11.37
2019-01-11T05:11:23.351Z,10.40
2019-01-11T05:13:56.886Z,10.83
2019-01-11T05:16:27.370Z,10.30
2019-01-11T05:18:58.102Z,11.27
2019-01-11T05:21:28.629Z,11.80
2019-01-11T05:23:59.108Z,10.40
2019-01-11T05:26:30.564Z,11.20
2019-01-11T05:29:01.058Z,10.60
2019-01-11T05:31:31.540Z,11.40
2019-01-11T05:34:02.041Z,9.93
2019-01-11T05:36:32.516Z,10.10
2019-01-11T05:39:04.297Z,11.70
2019-01-11T05:41:34.767Z,11.73
2019-01-11T05:44:05.304Z,10.20
2019-01-11T05:46:35.897Z,10.83
2019-01-11T05:49:07.296Z,10.63
2019-01-11T05:51:37.759Z,12.10
2019-01-11T05:54:08.212Z,10.70
2019-01-11T05:56:38.702Z,10.57
2019-01-11T05:59:09.670Z,11.43
2019-01-11T06:01:40.785Z,9.47
2019-01-11T06:04:29.297Z,10.00
2019-01-11T06:07:24.860Z,10.10
2019-01-11T06:09:55.340Z,10.40
2019-01-11T06:12:25.812Z,10.57
2019-01-11T06:14:56.353Z,9.93
2019-01-11T06:17:26.830Z,10.07
2019-01-11T06:19:57.272Z,9.73
2019-01-11T06:22:28.009Z,11.43
2019-01-11T06:24:58.506Z,10.13
2019-01-11T06:27:29.285Z,10.77
2019-01-11T06:30:00.081Z,10.70
2019-01-11T06:32:30.641Z,10.40
2019-01-11T06:35:01.175Z,10.17
2019-01-11T06:37:31.663Z,9.70
2019-01-11T06:40:02.133Z,10.90
2019-01-11T06:42:33.037Z,11.13
2019-01-11T06:45:03.846Z,10.80
2019-01-11T06:47:34.326Z,9.87
2019-01-11T08:02:17.482Z,8.83
2019-01-11T08:04:47.961Z,13.22
2019-01-11T08:07:18.497Z,15.50
2019-01-11T08:09:50.462Z,15.15
2019-01-11T08:12:20.948Z,13.93
2019-01-11T08:14:51.398Z,13.05
2019-01-11T08:17:21.849Z,13.70
2019-01-11T08:19:52.316Z,14.47
2019-01-11T08:22:47.728Z,14.30
2019-01-11T08:25:18.204Z,14.00
2019-01-11T08:27:48.659Z,13.93
2019-01-11T08:30:19.104Z,14.53
2019-01-11T08:32:49.570Z,13.20
2019-01-11T08:35:20.145Z,13.25
2019-01-11T08:37:50.744Z,13.33
2019-01-11T08:40:21.305Z,12.63
2019-01-11T08:42:52.389Z,15.00
2019-01-11T08:45:22.845Z,13.08
2019-01-11T08:47:53.364Z,9.43
2019-01-11T08:50:23.816Z,9.57
2019-01-11T08:52:54.331Z,8.73
2019-01-11T08:55:24.965Z,8.93
2019-01-11T08:57:55.400Z,8.07
2019-01-11T09:00:26.159Z,8.43
2019-01-11T09:02:56.576Z,8.57
2019-01-11T09:05:27.009Z,7.33
2019-01-11T09:07:57.447Z,8.07
2019-01-11T09:10:27.885Z,7.50
2019-01-11T09:12:58.341Z,7.77
2019-01-11T09:15:28.800Z,7.60
2019-01-11T09:18:16.201Z,8.30
2019-01-11T09:20:47.177Z,7.80
2019-01-11T09:23:17.978Z,8.23
2019-01-11T09:25:48.492Z,8.53
2019-01-11T09:28:18.910Z,8.53
2019-01-11T09:30:49.466Z,7.53
2019-01-11T09:33:20.859Z,8.53
2019-01-11T09:35:52.175Z,7.80
2019-01-11T09:38:22.634Z,8.47
2019-01-11T09:40:53.134Z,8.00
2019-01-11T09:43:23.596Z,8.13
2019-01-11T09:45:54.033Z,8.07
2019-01-11T09:48:24.461Z,8.30
2019-01-11T09:50:54.989Z,8.23
2019-01-11T09:53:25.713Z,8.63
2019-01-11T09:55:56.173Z,8.37
2019-01-11T09:58:26.849Z,8.33
2019-01-11T10:00:59.271Z,9.30
2019-01-11T10:03:29.409Z,7.80
2019-01-11T10:05:59.856Z,7.80
2019-01-11T10:08:30.293Z,8.20
2019-01-11T10:11:00.794Z,9.10
2019-01-11T10:13:31.252Z,8.87
2019-01-11T10:16:01.712Z,9.20
2019-01-11T10:18:32.261Z,8.90
2019-01-11T10:21:02.701Z,9.60
2019-01-11T10:23:33.501Z,9.07
2019-01-11T10:26:04.876Z,9.20
2019-01-11T10:28:35.332Z,10.27
2019-01-11T10:31:13.279Z,9.40
2019-01-11T10:33:43.736Z,7.70
2019-01-11T10:36:14.197Z,9.37
2019-01-11T10:38:45.809Z,8.93
2019-01-11T10:41:16.304Z,9.30
2019-01-11T10:43:46.831Z,9.67
2019-01-11T10:46:54.533Z,10.07
2019-01-11T10:49:25.001Z,10.60
2019-01-11T10:51:55.464Z,9.50
2019-01-11T10:54:40.504Z,9.50
2019-01-11T10:57:11.479Z,8.70
2019-01-11T10:59:42.032Z,8.70
2019-01-11T11:02:12.551Z,9.70
2019-01-11T11:04:42.985Z,10.17
2019-01-11T11:07:13.926Z,9.77
2019-01-11T11:09:44.377Z,9.90
2019-01-11T11:12:15.109Z,9.83
2019-01-11T11:14:45.612Z,9.27
2019-01-11T11:17:16.061Z,10.13
2019-01-11T11:19:47.028Z,9.53
2019-01-11T11:22:17.592Z,10.10
2019-01-11T11:24:48.033Z,9.67
2019-01-11T11:27:18.492Z,9.93
2019-01-11T11:29:48.953Z,9.83
2019-01-11T11:32:26.568Z,9.80
2019-01-11T11:34:57.045Z,9.43
2019-01-11T11:37:28.969Z,9.50
2019-01-11T11:39:59.440Z,10.20
2019-01-11T11:42:29.909Z,10.73
2019-01-11T11:45:00.392Z,10.17
2019-01-11T11:47:30.892Z,9.63
2019-01-11T11:50:01.819Z,10.70
2019-01-11T11:52:32.285Z,10.03
2019-01-11T11:55:02.778Z,10.63
2019-01-11T11:57:33.899Z,10.43
2019-01-11T12:00:07.056Z,9.77
2019-01-11T12:02:37.519Z,10.67
2019-01-11T12:05:08.398Z,10.63
2019-01-11T12:08:25.013Z,10.80
2019-01-11T12:10:55.602Z,10.27
2019-01-11T12:13:41.339Z,10.73
2019-01-11T12:16:13.409Z,10.23
2019-01-11T12:18:44.407Z,11.03
2019-01-11T12:21:24.398Z,10.43
2019-01-11T12:23:54.334Z,11.07
2019-01-11T12:26:25.076Z,11.20
2019-01-11T12:28:59.139Z,10.60
2019-01-11T12:31:29.683Z,10.83
2019-01-11T12:34:02.025Z,10.37
2019-01-11T12:36:32.553Z,12.23
2019-01-11T12:39:03.602Z,11.33
2019-01-11T12:41:34.360Z,11.50
2019-01-11T12:44:04.943Z,11.93
2019-01-11T12:46:35.449Z,11.43
2019-01-11T12:49:06.019Z,10.97
2019-01-11T12:51:36.582Z,11.17
2019-01-11T12:54:07.055Z,11.00
2019-01-11T12:56:37.527Z,11.03
2019-01-11T12:59:08.006Z,11.20
2019-01-11T13:01:39.532Z,11.33
2019-01-11T13:04:10.107Z,10.93
2019-01-11T13:06:40.894Z,11.37
2019-01-11T13:09:11.546Z,11.83
2019-01-11T13:11:42.430Z,11.57
2019-01-11T13:14:13.052Z,11.20
2019-01-11T13:16:43.566Z,11.03
2019-01-11T13:19:14.429Z,12.87
2019-01-11T13:21:44.883Z,11.87
2019-01-11T13:24:15.423Z,12.23
2019-01-11T13:26:45.904Z,11.53
2019-01-11T13:29:16.873Z,11.83
2019-01-11T13:31:47.419Z,10.37
2019-01-11T13:34:17.925Z,10.57
2019-01-11T13:36:53.931Z,11.60
2019-01-11T13:39:20.658Z,10.63
2019-01-11T13:41:51.322Z,11.10
2019-01-11T13:44:22.803Z,11.23
2019-01-11T13:46:53.691Z,12.20
2019-01-11T13:49:24.600Z,11.93
2019-01-11T13:51:55.197Z,11.00
2019-01-11T13:54:26.767Z,11.33
2019-01-11T13:56:57.274Z,11.37
2019-01-11T13:59:27.964Z,10.70
2019-01-11T14:01:58.422Z,11.37
2019-01-11T14:04:28.926Z,11.90
2019-01-11T14:06:59.882Z,10.70
2019-01-11T14:09:30.609Z,11.87
2019-01-11T14:12:01.351Z,10.20
2019-01-11T14:14:31.865Z,11.17
2019-01-11T14:17:02.519Z,11.10
2019-01-11T14:19:33.293Z,10.77
2019-01-11T14:22:04.077Z,11.47
2019-01-11T14:24:34.565Z,12.50
2019-01-11T14:27:05.036Z,12.10
2019-01-11T14:29:35.468Z,12.47
2019-01-11T14:32:05.938Z,11.87
2019-01-11T14:34:36.406Z,10.93
2019-01-11T14:37:06.889Z,11.70
2019-01-11T14:39:37.382Z,12.47
2019-01-11T14:42:08.025Z,12.33
2019-01-11T14:44:38.523Z,13.00
2019-01-11T14:47:09.213Z,13.07
2019-01-11T14:49:39.737Z,12.30
2019-01-11T14:52:10.428Z,12.50
2019-01-11T14:54:40.927Z,13.27
2019-01-11T14:57:11.483Z,13.50
2019-01-11T14:59:42.037Z,13.10
2019-01-11T15:02:12.508Z,13.27
2019-01-11T15:04:43.049Z,13.37
2019-01-11T15:07:13.637Z,13.83
2019-01-11T15:09:44.502Z,13.93
2019-01-11T15:12:14.997Z,13.47
2019-01-11T15:14:45.546Z,13.47
2019-01-11T15:17:16.429Z,14.40
2019-01-11T15:19:47.005Z,13.80
2019-01-11T15:22:17.577Z,13.43
2019-01-11T15:24:48.082Z,14.23
2019-01-11T15:27:18.576Z,13.23
2019-01-11T15:29:49.140Z,14.00
2019-01-11T15:32:19.756Z,14.60
2019-01-11T15:34:51.087Z,13.43
2019-01-11T15:37:21.664Z,14.13
2019-01-11T15:39:52.260Z,14.60
2019-01-11T15:42:22.909Z,14.77
2019-01-11T15:44:53.478Z,15.63
2019-01-11T15:47:23.971Z,14.27
2019-01-11T15:49:54.549Z,14.50
2019-01-11T15:52:25.029Z,14.70
2019-01-11T15:54:55.525Z,15.43
2019-01-11T15:57:42.119Z,14.20
2019-01-11T16:00:21.000Z,14.23
2019-01-11T16:02:51.537Z,15.43
2019-01-11T16:05:22.173Z,15.23
2019-01-11T16:07:54.047Z,15.30
2019-01-11T16:10:25.076Z,15.13
2019-01-11T16:13:24.198Z,15.63
2019-01-11T16:16:19.860Z,15.13
2019-01-11T16:18:51.622Z,15.43
2019-01-11T16:21:22.092Z,14.50
2019-01-11T16:23:52.602Z,15.80
2019-01-11T16:26:23.126Z,14.93
2019-01-11T16:32:09.786Z,14.53
2019-01-11T16:34:40.477Z,15.20
2019-01-11T16:37:12.163Z,16.13
2019-01-11T16:39:42.820Z,14.77
2019-01-11T16:42:13.489Z,15.90
2019-01-11T16:44:44.246Z,14.83
2019-01-11T16:50:38.769Z,15.00
2019-01-11T16:56:16.576Z,20.80
2019-01-11T16:58:50.356Z,17.10
2019-01-11T17:01:23.747Z,16.53
2019-01-11T17:04:18.443Z,15.77
2019-01-11T17:07:52.719Z,15.47
2019-01-11T17:10:23.675Z,17.00
2019-01-11T17:13:05.216Z,17.30
2019-01-11T17:15:35.744Z,17.33
2019-01-11T17:18:06.371Z,16.57
2019-01-11T17:20:39.084Z,15.73
2019-01-11T17:23:10.186Z,17.07
2019-01-11T17:26:23.399Z,16.47
